createdAt,value
2017-12-03T00:01:36.834Z,0.30
2017-12-03T00:04:04.352Z,0.37
2017-12-03T00:06:31.904Z,0.58
2017-12-03T00:08:59.547Z,0.36
2017-12-03T00:11:27.067Z,0.31
2017-12-03T00:13:54.592Z,0.41
2017-12-03T00:16:22.168Z,0.32
2017-12-03T00:18:49.717Z,0.35
2017-12-03T00:21:17.231Z,0.48
2017-12-03T00:23:44.875Z,0.21
2017-12-03T00:26:12.391Z,0.30
2017-12-03T00:28:39.917Z,0.29
2017-12-03T00:31:07.510Z,0.38
2017-12-03T00:33:35.027Z,0.22
2017-12-03T00:36:02.555Z,0.31
2017-12-03T00:38:30.209Z,0.40
2017-12-03T00:40:57.736Z,0.37
2017-12-03T00:43:25.272Z,0.29
2017-12-03T00:45:52.821Z,0.35
2017-12-03T00:48:20.340Z,0.61
2017-12-03T00:50:47.992Z,0.26
2017-12-03T00:53:15.512Z,0.46
2017-12-03T00:55:43.050Z,0.23
2017-12-03T00:58:10.709Z,0.28
2017-12-03T01:00:38.252Z,0.29
2017-12-03T01:03:05.777Z,0.20
2017-12-03T01:05:33.353Z,0.36
2017-12-03T01:08:00.884Z,0.46
2017-12-03T01:10:28.634Z,0.35
2017-12-03T01:12:56.215Z,0.37
2017-12-03T01:15:23.773Z,0.27
2017-12-03T01:17:51.313Z,0.27
2017-12-03T01:20:18.997Z,0.56
2017-12-03T01:22:46.549Z,0.64
2017-12-03T01:25:14.101Z,0.61
2017-12-03T01:27:41.675Z,0.52
2017-12-03T01:30:09.199Z,0.60
2017-12-03T01:32:36.720Z,0.46
2017-12-03T01:35:04.280Z,0.38
2017-12-03T01:37:31.790Z,0.41
2017-12-03T01:39:59.313Z,0.69
2017-12-03T01:42:26.865Z,0.55
2017-12-03T01:44:54.380Z,0.68
2017-12-03T01:47:22.045Z,0.75
2017-12-03T01:49:49.577Z,0.68
2017-12-03T01:52:17.108Z,0.40
2017-12-03T01:54:44.662Z,0.40
2017-12-03T01:57:12.213Z,0.67
2017-12-03T01:59:39.732Z,0.59
2017-12-03T02:02:07.398Z,0.47
2017-12-03T02:04:34.929Z,0.55
2017-12-03T02:07:02.499Z,0.81
2017-12-03T02:09:30.085Z,0.40
2017-12-03T02:11:57.629Z,0.41
2017-12-03T02:14:25.208Z,0.73
2017-12-03T02:16:52.762Z,0.77
2017-12-03T02:19:20.365Z,0.56
2017-12-03T02:21:47.941Z,0.47
2017-12-03T02:24:15.480Z,0.23
2017-12-03T02:26:43.034Z,0.56
2017-12-03T02:29:10.560Z,0.46
2017-12-03T02:31:38.222Z,0.57
2017-12-03T02:34:05.753Z,0.16
2017-12-03T02:36:33.290Z,0.43
2017-12-03T02:39:00.847Z,0.50
2017-12-03T02:41:28.385Z,0.56
2017-12-03T02:43:56.002Z,0.54
2017-12-03T02:46:23.544Z,0.50
2017-12-03T02:48:51.074Z,0.65
2017-12-03T02:51:18.742Z,0.30
2017-12-03T02:53:46.278Z,0.45
2017-12-03T02:56:13.830Z,0.53
2017-12-03T02:58:41.433Z,0.53
2017-12-03T03:01:08.973Z,0.62
2017-12-03T03:03:36.514Z,0.41
2017-12-03T03:06:04.104Z,0.32
2017-12-03T03:08:31.678Z,0.47
2017-12-03T03:10:59.207Z,0.72
2017-12-03T03:13:26.781Z,0.64
2017-12-03T03:15:54.332Z,0.59
2017-12-03T03:18:21.871Z,0.72
2017-12-03T03:20:49.432Z,0.67
2017-12-03T03:23:17.000Z,0.75
2017-12-03T03:25:44.579Z,0.68
2017-12-03T03:28:12.237Z,0.59
2017-12-03T03:30:39.760Z,0.42
2017-12-03T03:33:07.284Z,0.49
2017-12-03T03:35:34.977Z,0.77
2017-12-03T03:38:02.525Z,0.69
2017-12-03T03:40:30.087Z,0.64
2017-12-03T03:42:57.685Z,0.45
2017-12-03T03:45:25.226Z,0.61
2017-12-03T03:47:52.755Z,0.83
2017-12-03T03:50:20.467Z,0.52
2017-12-03T03:52:47.989Z,0.78
2017-12-03T03:55:15.528Z,0.74
2017-12-03T03:57:43.182Z,0.65
2017-12-03T04:00:10.720Z,0.68
2017-12-03T04:02:38.274Z,0.74
2017-12-03T04:05:05.958Z,1.00
2017-12-03T04:07:33.488Z,0.83
2017-12-03T04:10:01.013Z,0.82
2017-12-03T04:12:28.788Z,0.81
2017-12-03T04:14:56.365Z,0.73
2017-12-03T04:17:23.893Z,0.75
2017-12-03T04:19:51.460Z,0.83
2017-12-03T04:22:19.004Z,0.84
2017-12-03T04:24:46.549Z,0.59
2017-12-03T04:27:14.117Z,0.78
2017-12-03T04:29:41.805Z,0.81
2017-12-03T04:32:09.364Z,0.72
2017-12-03T04:34:36.916Z,0.82
2017-12-03T04:37:04.616Z,0.67
2017-12-03T04:39:32.175Z,0.58
2017-12-03T04:41:59.762Z,0.67
2017-12-03T04:44:27.390Z,0.55
2017-12-03T04:46:54.956Z,0.53
2017-12-03T04:49:22.514Z,0.86
2017-12-03T04:51:50.071Z,0.87
2017-12-03T04:54:17.642Z,0.80
2017-12-03T04:56:45.215Z,0.85
2017-12-03T04:59:12.790Z,0.88
2017-12-03T05:01:40.312Z,1.00
2017-12-03T05:04:07.888Z,0.91
2017-12-03T05:06:35.438Z,0.81
2017-12-03T05:09:03.042Z,0.66
2017-12-03T05:11:30.608Z,0.92
2017-12-03T05:13:58.182Z,0.94
2017-12-03T05:16:25.852Z,0.75
2017-12-03T05:18:53.398Z,0.73
2017-12-03T05:21:20.919Z,0.98
2017-12-03T05:23:48.524Z,1.04
2017-12-03T05:26:16.071Z,0.65
2017-12-03T05:28:43.629Z,0.73
2017-12-03T05:31:11.201Z,0.82
2017-12-03T05:33:38.741Z,0.86
2017-12-03T05:36:06.385Z,0.76
2017-12-03T05:38:33.892Z,0.71
2017-12-03T05:41:01.433Z,0.66
2017-12-03T05:43:29.004Z,0.53
2017-12-03T05:45:56.598Z,0.71
2017-12-03T05:48:24.152Z,0.53
2017-12-03T05:50:51.697Z,0.86
2017-12-03T05:53:19.260Z,0.87
2017-12-03T05:55:46.779Z,0.93
2017-12-03T05:58:14.328Z,0.82
2017-12-03T06:00:41.861Z,1.00
2017-12-03T06:03:09.550Z,0.79
2017-12-03T06:05:37.085Z,1.01
2017-12-03T06:08:04.624Z,1.22
2017-12-03T06:10:32.294Z,0.91
2017-12-03T06:12:59.933Z,1.00
2017-12-03T06:15:27.477Z,0.90
2017-12-03T06:17:55.245Z,0.57
2017-12-03T06:20:22.791Z,0.53
2017-12-03T06:22:50.322Z,0.67
2017-12-03T06:25:17.982Z,0.58
2017-12-03T06:27:45.511Z,0.88
2017-12-03T06:30:13.056Z,0.75
2017-12-03T06:32:40.600Z,0.82
2017-12-03T06:35:08.149Z,0.78
2017-12-03T06:37:35.753Z,0.78
2017-12-03T06:40:03.285Z,1.00
2017-12-03T06:42:30.834Z,0.93
2017-12-03T06:44:58.390Z,0.93
2017-12-03T06:47:25.971Z,1.05
2017-12-03T06:49:53.518Z,1.25
2017-12-03T06:52:21.070Z,1.36
2017-12-03T06:54:48.619Z,1.00
2017-12-03T06:57:16.306Z,0.92
2017-12-03T06:59:43.853Z,0.77
2017-12-03T07:02:11.409Z,1.05
2017-12-03T07:04:39.080Z,0.97
2017-12-03T07:07:06.637Z,1.04
2017-12-03T07:09:34.200Z,1.08
2017-12-03T07:12:01.809Z,1.04
2017-12-03T07:14:29.357Z,1.06
2017-12-03T07:16:56.899Z,1.02
2017-12-03T07:19:24.571Z,1.03
2017-12-03T07:21:52.117Z,0.85
2017-12-03T07:24:19.651Z,0.84
2017-12-03T07:26:47.222Z,1.07
2017-12-03T07:29:14.809Z,1.10
2017-12-03T07:31:42.377Z,1.23
2017-12-03T07:34:09.957Z,1.25
2017-12-03T07:36:37.488Z,1.23
2017-12-03T07:39:05.080Z,1.43
2017-12-03T07:41:32.616Z,1.15
2017-12-03T07:44:00.185Z,1.18
2017-12-03T07:46:27.877Z,1.54
2017-12-03T07:48:55.422Z,1.13
2017-12-03T07:51:23.901Z,1.36
2017-12-03T07:53:51.457Z,1.30
2017-12-03T07:56:19.008Z,1.06
2017-12-03T07:58:46.570Z,1.29
2017-12-03T08:01:14.163Z,1.31
2017-12-03T08:03:41.772Z,1.40
2017-12-03T08:06:09.300Z,1.35
2017-12-03T08:08:36.876Z,1.45
2017-12-03T08:11:04.489Z,1.41
2017-12-03T08:13:32.020Z,1.52
2017-12-03T08:15:59.564Z,1.78
2017-12-03T08:18:27.133Z,1.76
2017-12-03T08:20:54.663Z,1.58
2017-12-03T08:23:22.216Z,1.59
2017-12-03T08:25:49.830Z,1.55
2017-12-03T08:28:17.377Z,1.65
2017-12-03T08:30:44.921Z,1.69
2017-12-03T08:33:12.505Z,1.67
2017-12-03T08:35:40.088Z,1.75
2017-12-03T08:38:07.676Z,1.53
2017-12-03T08:40:35.218Z,1.39
2017-12-03T08:43:02.759Z,1.54
2017-12-03T08:45:30.344Z,1.70
2017-12-03T08:47:57.929Z,1.94
2017-12-03T08:50:25.472Z,1.86
2017-12-03T08:52:53.069Z,1.84
2017-12-03T08:55:20.608Z,1.78
2017-12-03T08:57:48.157Z,1.79
2017-12-03T09:00:15.781Z,1.97
2017-12-03T09:02:43.330Z,1.53
2017-12-03T09:05:10.889Z,1.61
2017-12-03T09:07:38.473Z,1.64
2017-12-03T09:10:06.798Z,1.95
2017-12-03T09:12:34.551Z,1.67
2017-12-03T09:15:02.238Z,1.78
2017-12-03T09:17:29.830Z,2.03
2017-12-03T09:19:57.385Z,1.73
2017-12-03T09:22:24.965Z,1.92
2017-12-03T09:24:52.596Z,1.95
2017-12-03T09:27:20.219Z,2.30
2017-12-03T09:29:47.766Z,2.32
2017-12-03T09:32:15.362Z,1.78
2017-12-03T09:34:43.013Z,2.33
2017-12-03T09:37:10.618Z,2.18
2017-12-03T09:39:38.157Z,2.31
2017-12-03T09:42:05.685Z,2.55
2017-12-03T09:44:33.286Z,2.37
2017-12-03T09:47:00.820Z,2.56
2017-12-03T09:49:28.390Z,2.09
2017-12-03T09:51:55.956Z,2.32
2017-12-03T09:54:23.492Z,2.59
2017-12-03T09:56:51.211Z,2.57
2017-12-03T09:59:18.757Z,2.32
2017-12-03T10:01:46.293Z,2.31
2017-12-03T10:04:13.905Z,2.42
2017-12-03T10:06:41.457Z,2.65
2017-12-03T10:09:09.016Z,2.70
2017-12-03T10:11:36.763Z,2.61
2017-12-03T10:14:04.420Z,2.59
2017-12-03T10:16:32.092Z,2.91
2017-12-03T10:18:59.659Z,2.60
2017-12-03T10:21:27.203Z,2.38
2017-12-03T10:23:54.759Z,2.47
2017-12-03T10:26:22.376Z,2.28
2017-12-03T10:28:49.925Z,2.25
2017-12-03T10:31:17.540Z,2.74
2017-12-03T10:33:45.156Z,2.34
2017-12-03T10:36:12.696Z,2.66
2017-12-03T10:38:40.277Z,2.74
2017-12-03T10:41:07.846Z,2.79
2017-12-03T10:43:35.396Z,3.33
2017-12-03T10:46:02.921Z,2.71
2017-12-03T10:48:30.461Z,2.68
2017-12-03T10:50:58.037Z,2.36
2017-12-03T10:53:25.561Z,2.83
2017-12-03T10:55:53.126Z,2.68
2017-12-03T10:58:20.649Z,2.64
2017-12-03T11:00:48.193Z,2.76
2017-12-03T11:03:15.797Z,2.80
2017-12-03T11:05:43.351Z,2.64
2017-12-03T11:08:10.904Z,2.88
2017-12-03T11:10:38.458Z,2.57
2017-12-03T11:13:05.978Z,2.88
2017-12-03T11:15:33.589Z,3.20
2017-12-03T11:18:01.120Z,3.00
2017-12-03T11:20:28.684Z,3.05
2017-12-03T11:22:56.365Z,2.63
2017-12-03T11:25:23.876Z,2.61
2017-12-03T11:27:51.416Z,2.33
2017-12-03T11:30:18.979Z,2.52
2017-12-03T11:32:46.544Z,2.80
2017-12-03T11:35:14.068Z,3.03
2017-12-03T11:37:41.603Z,2.89
2017-12-03T11:40:09.151Z,2.87
2017-12-03T11:42:36.731Z,2.87
2017-12-03T11:45:04.252Z,2.52
2017-12-03T11:47:31.767Z,2.88
2017-12-03T11:49:59.328Z,2.67
2017-12-03T11:52:26.856Z,2.58
2017-12-03T11:54:54.388Z,2.82
2017-12-03T11:57:21.942Z,3.01
2017-12-03T11:59:49.488Z,3.01
2017-12-03T12:02:17.013Z,3.11
2017-12-03T12:04:44.719Z,2.83
2017-12-03T12:07:12.240Z,2.85
2017-12-03T12:09:39.766Z,2.94
2017-12-03T12:12:07.316Z,3.13
2017-12-03T12:14:34.856Z,3.08
2017-12-03T12:17:02.424Z,3.13
2017-12-03T12:19:29.944Z,2.92
2017-12-03T12:21:57.464Z,3.12
2017-12-03T12:24:25.197Z,3.23
2017-12-03T12:26:52.732Z,3.44
2017-12-03T12:29:20.295Z,3.45
2017-12-03T12:31:47.873Z,3.66
2017-12-03T12:34:15.434Z,3.71
2017-12-03T12:36:43.023Z,3.68
2017-12-03T12:39:10.638Z,3.13
2017-12-03T12:41:38.164Z,2.98
2017-12-03T12:44:05.712Z,3.49
2017-12-03T12:46:33.252Z,3.59
2017-12-03T12:49:01.009Z,3.07
2017-12-03T12:51:28.595Z,3.41
2017-12-03T12:53:56.152Z,3.39
2017-12-03T12:56:23.825Z,3.18
2017-12-03T12:58:51.381Z,3.13
2017-12-03T13:01:18.924Z,3.37
2017-12-03T13:03:46.501Z,3.44
2017-12-03T13:06:14.021Z,3.30
2017-12-03T13:08:41.532Z,3.62
2017-12-03T13:11:09.111Z,3.43
2017-12-03T13:13:36.660Z,3.55
2017-12-03T13:16:04.191Z,3.14
2017-12-03T13:18:31.812Z,3.27
2017-12-03T13:20:59.352Z,3.37
2017-12-03T13:23:26.943Z,3.06
2017-12-03T13:25:54.474Z,3.52
2017-12-03T13:28:21.996Z,3.26
2017-12-03T13:30:49.777Z,3.30
2017-12-03T13:33:17.301Z,3.37
2017-12-03T13:35:44.842Z,3.58
2017-12-03T13:38:12.387Z,3.73
2017-12-03T13:40:40.082Z,3.34
2017-12-03T13:43:07.624Z,3.27
2017-12-03T13:45:35.153Z,3.50
2017-12-03T13:48:02.894Z,3.33
2017-12-03T13:50:30.417Z,3.53
2017-12-03T13:52:57.969Z,3.79
2017-12-03T13:55:25.508Z,3.65
2017-12-03T13:57:53.029Z,3.59
2017-12-03T14:00:20.584Z,3.67
2017-12-03T14:02:48.163Z,3.58
2017-12-03T14:05:15.694Z,3.35
2017-12-03T14:07:43.256Z,3.40
2017-12-03T14:10:10.834Z,3.85
2017-12-03T14:12:38.388Z,3.83
2017-12-03T14:15:06.010Z,3.74
2017-12-03T14:17:33.553Z,3.51
2017-12-03T14:20:01.237Z,3.50
2017-12-03T14:22:28.760Z,3.44
2017-12-03T14:24:56.309Z,3.51
2017-12-03T14:27:23.866Z,3.67
2017-12-03T14:29:51.407Z,3.76
2017-12-03T14:32:18.981Z,3.70
2017-12-03T14:34:46.520Z,4.01
2017-12-03T14:37:14.035Z,4.00
2017-12-03T14:39:41.590Z,3.73
2017-12-03T14:42:09.167Z,4.00
2017-12-03T14:44:36.821Z,4.23
2017-12-03T14:47:04.417Z,3.87
2017-12-03T14:49:31.957Z,3.95
2017-12-03T14:51:59.539Z,4.05
2017-12-03T14:54:27.069Z,3.92
2017-12-03T14:56:54.599Z,3.86
2017-12-03T14:59:22.148Z,3.92
2017-12-03T15:01:49.668Z,3.97
2017-12-03T15:04:17.453Z,3.93
2017-12-03T15:06:44.988Z,3.91
2017-12-03T15:09:12.532Z,3.81
2017-12-03T15:11:40.127Z,3.98
2017-12-03T15:14:07.664Z,3.82
2017-12-03T15:16:35.246Z,3.84
2017-12-03T15:19:02.832Z,3.84
2017-12-03T15:21:30.385Z,3.92
2017-12-03T15:23:57.924Z,3.78
2017-12-03T15:26:25.497Z,4.02
2017-12-03T15:28:53.117Z,4.02
2017-12-03T15:31:20.672Z,3.91
2017-12-03T15:33:48.270Z,4.28
2017-12-03T15:36:15.832Z,4.20
2017-12-03T15:38:43.428Z,4.28
2017-12-03T15:41:11.029Z,4.15
2017-12-03T15:43:38.640Z,4.04
2017-12-03T15:46:06.222Z,4.19
2017-12-03T15:48:33.788Z,4.41
2017-12-03T15:51:01.367Z,4.18
2017-12-03T15:53:28.996Z,4.16
2017-12-03T15:55:56.789Z,4.11
2017-12-03T15:58:24.327Z,4.25
2017-12-03T16:00:51.864Z,4.37
2017-12-03T16:03:19.439Z,4.29
2017-12-03T16:05:47.024Z,4.26
2017-12-03T16:08:14.580Z,4.48
2017-12-03T16:10:42.381Z,4.46
2017-12-03T16:13:09.910Z,4.30
2017-12-03T16:15:37.457Z,4.33
2017-12-03T16:18:05.030Z,4.28
2017-12-03T16:20:32.583Z,4.30
2017-12-03T16:23:00.512Z,4.31
2017-12-03T16:25:28.113Z,4.52
2017-12-03T16:27:55.646Z,4.35
2017-12-03T16:30:23.212Z,4.39
2017-12-03T16:32:50.809Z,4.49
2017-12-03T16:35:18.353Z,4.47
2017-12-03T16:37:45.885Z,4.55
2017-12-03T16:40:13.476Z,4.53
2017-12-03T16:42:41.073Z,4.71
2017-12-03T16:45:08.608Z,4.60
2017-12-03T16:47:36.137Z,4.54
2017-12-03T16:50:04.619Z,4.58
2017-12-03T16:52:32.169Z,4.65
2017-12-03T16:54:59.713Z,4.53
2017-12-03T16:57:27.321Z,4.60
2017-12-03T16:59:54.874Z,4.66
2017-12-03T17:02:22.421Z,4.61
2017-12-03T17:04:50.173Z,4.63
2017-12-03T17:07:17.698Z,4.61
2017-12-03T17:09:45.236Z,4.56
2017-12-03T17:12:12.812Z,4.71
2017-12-03T17:14:40.557Z,4.96
2017-12-03T17:17:08.088Z,4.76
2017-12-03T17:19:35.637Z,4.64
2017-12-03T17:22:03.240Z,4.68
2017-12-03T17:24:30.776Z,4.70
2017-12-03T17:26:58.356Z,4.63
2017-12-03T17:29:25.973Z,4.67
2017-12-03T17:31:53.500Z,4.66
2017-12-03T17:34:21.030Z,4.74
2017-12-03T17:36:48.731Z,4.86
2017-12-03T17:39:16.262Z,4.71
2017-12-03T17:41:43.797Z,4.60
2017-12-03T17:44:11.383Z,4.74
2017-12-03T17:46:38.917Z,4.84
2017-12-03T17:49:06.457Z,4.72
2017-12-03T17:51:34.009Z,4.73
2017-12-03T17:54:01.532Z,5.06
2017-12-03T17:56:29.085Z,5.28
2017-12-03T17:58:56.656Z,5.00
2017-12-03T18:01:24.194Z,4.98
2017-12-03T18:03:51.745Z,4.81
2017-12-03T18:06:19.343Z,4.76
2017-12-03T18:08:46.868Z,4.62
2017-12-03T18:11:14.407Z,4.61
2017-12-03T18:13:41.960Z,4.58
2017-12-03T18:16:09.489Z,4.82
2017-12-03T18:18:37.260Z,4.86
2017-12-03T18:21:04.813Z,4.74
2017-12-03T18:23:32.431Z,4.61
2017-12-03T18:25:59.972Z,4.50
2017-12-03T18:28:27.561Z,4.49
2017-12-03T18:30:55.097Z,4.44
2017-12-03T18:33:22.620Z,4.52
2017-12-03T18:35:50.192Z,4.47
2017-12-03T18:38:17.745Z,4.38
2017-12-03T18:40:45.334Z,4.32
2017-12-03T18:43:13.028Z,4.31
2017-12-03T18:45:40.589Z,4.29
2017-12-03T18:48:08.140Z,4.24
2017-12-03T18:50:35.759Z,4.35
2017-12-03T18:53:03.333Z,4.28
2017-12-03T18:55:30.880Z,4.27
2017-12-03T18:57:58.560Z,4.33
2017-12-03T19:00:26.130Z,4.38
2017-12-03T19:02:53.701Z,4.44
2017-12-03T19:05:21.312Z,4.37
2017-12-03T19:07:48.853Z,4.36
2017-12-03T19:10:16.410Z,4.40
2017-12-03T19:12:43.996Z,4.26
2017-12-03T19:15:11.528Z,4.38
2017-12-03T19:17:39.065Z,4.28
2017-12-03T19:20:06.781Z,4.25
2017-12-03T19:22:34.321Z,4.48
2017-12-03T19:25:01.926Z,4.32
2017-12-03T19:27:29.606Z,4.35
2017-12-03T19:29:57.132Z,4.40
2017-12-03T19:32:24.686Z,4.47
2017-12-03T19:34:52.623Z,4.29
2017-12-03T19:37:20.163Z,4.36
2017-12-03T19:39:47.688Z,4.29
2017-12-03T19:42:15.288Z,4.35
2017-12-03T19:44:42.851Z,4.43
2017-12-03T19:47:10.583Z,4.33
2017-12-03T19:49:38.252Z,4.39
2017-12-03T19:52:05.779Z,4.41
2017-12-03T19:54:33.371Z,4.16
2017-12-03T19:57:00.929Z,4.30
2017-12-03T19:59:28.659Z,4.13
2017-12-03T20:01:56.189Z,4.05
2017-12-03T20:04:23.713Z,4.21
2017-12-03T20:06:51.322Z,3.98
2017-12-03T20:09:18.840Z,4.00
2017-12-03T20:11:46.374Z,4.09
2017-12-03T20:14:13.944Z,4.06
2017-12-03T20:16:41.474Z,4.03
2017-12-03T20:19:09.056Z,4.07
2017-12-03T20:21:36.647Z,4.11
2017-12-03T20:24:04.291Z,4.14
2017-12-03T20:26:31.852Z,4.11
2017-12-03T20:28:59.441Z,4.24
2017-12-03T20:31:27.008Z,4.19
2017-12-03T20:33:54.557Z,4.20
2017-12-03T20:36:22.177Z,4.28
2017-12-03T20:38:49.718Z,4.27
2017-12-03T20:41:17.276Z,4.35
2017-12-03T20:43:44.860Z,4.43
2017-12-03T20:46:12.411Z,4.37
2017-12-03T20:48:40.141Z,4.39
2017-12-03T20:51:07.709Z,4.37
2017-12-03T20:53:35.252Z,4.44
2017-12-03T20:56:02.962Z,4.39
2017-12-03T20:58:30.552Z,4.43
2017-12-03T21:00:58.086Z,4.45
2017-12-03T21:03:25.663Z,4.43
2017-12-03T21:05:53.185Z,4.43
2017-12-03T21:08:20.729Z,4.41
2017-12-03T21:10:48.272Z,4.43
2017-12-03T21:13:15.963Z,4.40
2017-12-03T21:15:43.484Z,4.48
2017-12-03T21:18:11.020Z,4.41
2017-12-03T21:20:38.599Z,4.43
2017-12-03T21:23:06.112Z,4.42
2017-12-03T21:25:33.628Z,4.43
2017-12-03T21:28:01.245Z,4.41
2017-12-03T21:30:28.777Z,4.30
2017-12-03T21:32:56.318Z,4.23
2017-12-03T21:35:24.024Z,4.19
2017-12-03T21:37:51.539Z,4.13
2017-12-03T21:40:19.075Z,4.04
2017-12-03T21:42:46.645Z,3.89
2017-12-03T21:45:14.177Z,3.88
2017-12-03T21:47:41.704Z,3.78
2017-12-03T21:50:09.248Z,3.77
2017-12-03T21:52:36.772Z,3.71
2017-12-03T21:55:04.429Z,3.76
2017-12-03T21:57:31.948Z,3.77
2017-12-03T21:59:59.465Z,3.81
2017-12-03T22:02:27.130Z,3.89
2017-12-03T22:04:54.647Z,3.86
2017-12-03T22:07:22.179Z,3.96
2017-12-03T22:09:49.765Z,3.88
2017-12-03T22:12:17.284Z,3.90
2017-12-03T22:14:44.809Z,3.86
2017-12-03T22:17:12.372Z,3.84
2017-12-03T22:19:39.904Z,3.84
2017-12-03T22:22:07.424Z,3.91
2017-12-03T22:24:35.085Z,4.01
2017-12-03T22:27:02.605Z,4.01
2017-12-03T22:29:30.126Z,4.12
2017-12-03T22:31:57.692Z,4.15
2017-12-03T22:34:25.204Z,4.06
2017-12-03T22:36:52.728Z,4.12
2017-12-03T22:39:20.293Z,4.13
2017-12-03T22:41:47.812Z,4.14
2017-12-03T22:44:15.333Z,4.18
2017-12-03T22:46:42.895Z,4.14
2017-12-03T22:49:10.404Z,4.32
2017-12-03T22:51:37.920Z,4.48
2017-12-03T22:54:05.488Z,4.49
2017-12-03T22:56:33.013Z,4.58
2017-12-03T22:59:00.537Z,4.61
2017-12-03T23:01:28.113Z,4.57
2017-12-03T23:03:55.619Z,4.68
2017-12-03T23:06:23.142Z,4.69
2017-12-03T23:08:50.819Z,4.82
2017-12-03T23:11:18.352Z,4.80
2017-12-03T23:13:45.878Z,4.78
2017-12-03T23:16:13.458Z,4.73
2017-12-03T23:18:40.979Z,4.77
2017-12-03T23:21:08.496Z,4.79
2017-12-03T23:23:36.086Z,4.78
2017-12-03T23:26:03.656Z,4.81
2017-12-03T23:28:31.339Z,4.83
2017-12-03T23:30:59.030Z,4.77
2017-12-03T23:33:26.589Z,4.76
2017-12-03T23:35:54.133Z,4.75
2017-12-03T23:38:21.920Z,4.76
2017-12-03T23:40:49.440Z,4.75
2017-12-03T23:43:16.980Z,4.75
2017-12-03T23:45:44.568Z,4.80
2017-12-03T23:48:12.123Z,4.84
2017-12-03T23:50:39.657Z,4.91
2017-12-03T23:53:07.233Z,4.93
2017-12-03T23:55:34.773Z,4.96
2017-12-03T23:58:02.301Z,4.91
